sensor_id;sensor_type;location;lat;lon;timestamp;P1;durP1;ratioP1;P2;durP2;ratioP2
21354;SDS011;10835;50.148;19.760;2022-10-14T00:01:18;15.77;;;8.65;;
21354;SDS011;10835;50.148;19.760;2022-10-14T00:03:48;12.80;;;7.95;;
21354;SDS011;10835;50.148;19.760;2022-10-14T00:06:20;13.85;;;7.13;;
21354;SDS011;10835;50.148;19.760;2022-10-14T00:08:50;13.10;;;6.80;;
21354;SDS011;10835;50.148;19.760;2022-10-14T00:11:19;14.07;;;8.07;;
21354;SDS011;10835;50.148;19.760;2022-10-14T00:13:50;17.08;;;9.07;;
21354;SDS011;10835;50.148;19.760;2022-10-14T00:16:21;13.45;;;7.97;;
21354;SDS011;10835;50.148;19.760;2022-10-14T00:18:50;17.42;;;9.23;;
21354;SDS011;10835;50.148;19.760;2022-10-14T00:21:18;16.90;;;8.57;;
21354;SDS011;10835;50.148;19.760;2022-10-14T00:23:46;13.65;;;8.20;;
21354;SDS011;10835;50.148;19.760;2022-10-14T00:26:18;19.52;;;9.73;;
21354;SDS011;10835;50.148;19.760;2022-10-14T00:28:47;16.13;;;9.35;;
21354;SDS011;10835;50.148;19.760;2022-10-14T00:31:16;13.45;;;7.25;;
21354;SDS011;10835;50.148;19.760;2022-10-14T00:33:46;15.15;;;8.07;;
21354;SDS011;10835;50.148;19.760;2022-10-14T00:36:15;12.13;;;7.22;;
21354;SDS011;10835;50.148;19.760;2022-10-14T00:38:45;13.52;;;7.30;;
21354;SDS011;10835;50.148;19.760;2022-10-14T00:41:14;13.98;;;6.95;;
21354;SDS011;10835;50.148;19.760;2022-10-14T00:43:56;15.85;;;7.38;;
21354;SDS011;10835;50.148;19.760;2022-10-14T00:46:27;16.98;;;7.88;;
21354;SDS011;10835;50.148;19.760;2022-10-14T00:49:00;15.77;;;7.75;;
21354;SDS011;10835;50.148;19.760;2022-10-14T00:51:31;13.68;;;8.18;;
21354;SDS011;10835;50.148;19.760;2022-10-14T00:54:00;13.70;;;7.95;;
21354;SDS011;10835;50.148;19.760;2022-10-14T00:56:30;14.63;;;7.82;;
21354;SDS011;10835;50.148;19.760;2022-10-14T00:58:59;17.55;;;9.20;;
21354;SDS011;10835;50.148;19.760;2022-10-14T01:01:30;20.65;;;9.55;;
21354;SDS011;10835;50.148;19.760;2022-10-14T01:04:00;15.40;;;8.52;;
21354;SDS011;10835;50.148;19.760;2022-10-14T01:06:32;18.02;;;8.05;;
21354;SDS011;10835;50.148;19.760;2022-10-14T01:09:11;14.82;;;9.10;;
21354;SDS011;10835;50.148;19.760;2022-10-14T01:11:47;16.42;;;9.63;;
21354;SDS011;10835;50.148;19.760;2022-10-14T01:14:47;13.57;;;8.80;;
21354;SDS011;10835;50.148;19.760;2022-10-14T01:17:27;13.23;;;8.68;;
21354;SDS011;10835;50.148;19.760;2022-10-14T01:20:20;14.55;;;9.30;;
21354;SDS011;10835;50.148;19.760;2022-10-14T01:26:08;16.73;;;10.18;;
21354;SDS011;10835;50.148;19.760;2022-10-14T01:28:53;17.92;;;9.77;;
21354;SDS011;10835;50.148;19.760;2022-10-14T01:31:41;13.70;;;8.73;;
21354;SDS011;10835;50.148;19.760;2022-10-14T01:34:12;18.33;;;8.80;;
21354;SDS011;10835;50.148;19.760;2022-10-14T01:36:48;14.70;;;8.65;;
21354;SDS011;10835;50.148;19.760;2022-10-14T01:39:22;13.90;;;8.52;;
21354;SDS011;10835;50.148;19.760;2022-10-14T01:41:54;15.63;;;9.18;;
21354;SDS011;10835;50.148;19.760;2022-10-14T01:44:27;14.57;;;8.77;;
21354;SDS011;10835;50.148;19.760;2022-10-14T01:47:00;18.15;;;10.00;;
21354;SDS011;10835;50.148;19.760;2022-10-14T01:49:31;20.13;;;9.18;;
21354;SDS011;10835;50.148;19.760;2022-10-14T01:52:21;21.45;;;9.80;;
21354;SDS011;10835;50.148;19.760;2022-10-14T01:55:14;13.15;;;8.27;;
21354;SDS011;10835;50.148;19.760;2022-10-14T01:58:06;13.48;;;8.27;;
21354;SDS011;10835;50.148;19.760;2022-10-14T02:00:56;16.33;;;8.95;;
21354;SDS011;10835;50.148;19.760;2022-10-14T02:03:46;19.00;;;9.18;;
21354;SDS011;10835;50.148;19.760;2022-10-14T02:06:35;16.88;;;9.55;;
21354;SDS011;10835;50.148;19.760;2022-10-14T02:09:27;12.75;;;8.07;;
21354;SDS011;10835;50.148;19.760;2022-10-14T02:12:09;19.75;;;10.32;;
21354;SDS011;10835;50.148;19.760;2022-10-14T02:14:49;17.42;;;10.32;;
21354;SDS011;10835;50.148;19.760;2022-10-14T02:17:24;18.15;;;10.55;;
21354;SDS011;10835;50.148;19.760;2022-10-14T02:19:59;14.23;;;8.05;;
21354;SDS011;10835;50.148;19.760;2022-10-14T02:22:39;13.32;;;8.55;;
21354;SDS011;10835;50.148;19.760;2022-10-14T02:25:22;17.52;;;8.90;;
21354;SDS011;10835;50.148;19.760;2022-10-14T02:27:54;15.88;;;8.98;;
21354;SDS011;10835;50.148;19.760;2022-10-14T02:30:23;16.25;;;8.48;;
21354;SDS011;10835;50.148;19.760;2022-10-14T02:32:55;15.60;;;9.45;;
21354;SDS011;10835;50.148;19.760;2022-10-14T02:35:27;17.77;;;9.93;;
21354;SDS011;10835;50.148;19.760;2022-10-14T02:37:57;17.58;;;10.38;;
21354;SDS011;10835;50.148;19.760;2022-10-14T02:40:28;17.90;;;9.88;;
21354;SDS011;10835;50.148;19.760;2022-10-14T02:43:00;14.25;;;9.65;;
21354;SDS011;10835;50.148;19.760;2022-10-14T02:45:28;15.85;;;10.05;;
21354;SDS011;10835;50.148;19.760;2022-10-14T02:47:58;17.65;;;10.27;;
21354;SDS011;10835;50.148;19.760;2022-10-14T02:50:27;15.30;;;9.98;;
21354;SDS011;10835;50.148;19.760;2022-10-14T02:52:55;14.73;;;9.68;;
21354;SDS011;10835;50.148;19.760;2022-10-14T02:55:23;21.08;;;10.13;;
21354;SDS011;10835;50.148;19.760;2022-10-14T02:57:51;19.55;;;10.13;;
21354;SDS011;10835;50.148;19.760;2022-10-14T03:00:20;14.02;;;9.70;;
21354;SDS011;10835;50.148;19.760;2022-10-14T03:02:51;17.05;;;8.95;;
21354;SDS011;10835;50.148;19.760;2022-10-14T03:05:19;14.52;;;8.85;;
21354;SDS011;10835;50.148;19.760;2022-10-14T03:07:49;15.65;;;9.23;;
21354;SDS011;10835;50.148;19.760;2022-10-14T03:10:18;14.35;;;9.88;;
21354;SDS011;10835;50.148;19.760;2022-10-14T03:12:47;36.03;;;10.95;;
21354;SDS011;10835;50.148;19.760;2022-10-14T03:15:24;19.52;;;9.23;;
21354;SDS011;10835;50.148;19.760;2022-10-14T03:17:53;16.75;;;9.60;;
21354;SDS011;10835;50.148;19.760;2022-10-14T03:20:32;25.33;;;10.52;;
21354;SDS011;10835;50.148;19.760;2022-10-14T03:23:01;20.08;;;11.00;;
21354;SDS011;10835;50.148;19.760;2022-10-14T03:25:32;22.15;;;11.25;;
21354;SDS011;10835;50.148;19.760;2022-10-14T03:28:05;17.15;;;10.30;;
21354;SDS011;10835;50.148;19.760;2022-10-14T03:30:41;19.42;;;10.32;;
21354;SDS011;10835;50.148;19.760;2022-10-14T03:33:14;16.33;;;10.20;;
21354;SDS011;10835;50.148;19.760;2022-10-14T03:36:05;21.48;;;10.00;;
21354;SDS011;10835;50.148;19.760;2022-10-14T03:38:46;26.35;;;11.02;;
21354;SDS011;10835;50.148;19.760;2022-10-14T03:41:27;17.17;;;9.48;;
21354;SDS011;10835;50.148;19.760;2022-10-14T03:43:55;15.48;;;9.60;;
21354;SDS011;10835;50.148;19.760;2022-10-14T03:46:23;15.25;;;8.30;;
21354;SDS011;10835;50.148;19.760;2022-10-14T03:48:51;17.80;;;8.93;;
21354;SDS011;10835;50.148;19.760;2022-10-14T03:51:20;14.88;;;9.30;;
21354;SDS011;10835;50.148;19.760;2022-10-14T03:53:54;17.20;;;9.25;;
21354;SDS011;10835;50.148;19.760;2022-10-14T03:56:27;13.20;;;7.22;;
21354;SDS011;10835;50.148;19.760;2022-10-14T03:58:55;16.50;;;8.70;;
21354;SDS011;10835;50.148;19.760;2022-10-14T04:01:23;23.38;;;10.90;;
21354;SDS011;10835;50.148;19.760;2022-10-14T04:04:06;21.55;;;9.80;;
21354;SDS011;10835;50.148;19.760;2022-10-14T04:06:35;38.45;;;15.88;;
21354;SDS011;10835;50.148;19.760;2022-10-14T04:09:06;24.02;;;11.30;;
21354;SDS011;10835;50.148;19.760;2022-10-14T04:11:37;40.17;;;17.15;;
21354;SDS011;10835;50.148;19.760;2022-10-14T04:14:09;30.50;;;14.88;;
21354;SDS011;10835;50.148;19.760;2022-10-14T04:16:44;20.95;;;9.93;;
21354;SDS011;10835;50.148;19.760;2022-10-14T04:19:16;14.15;;;9.35;;
21354;SDS011;10835;50.148;19.760;2022-10-14T04:21:44;16.83;;;9.75;;
21354;SDS011;10835;50.148;19.760;2022-10-14T04:24:17;18.25;;;10.18;;
21354;SDS011;10835;50.148;19.760;2022-10-14T04:26:50;26.80;;;12.57;;
21354;SDS011;10835;50.148;19.760;2022-10-14T04:29:31;21.05;;;11.15;;
21354;SDS011;10835;50.148;19.760;2022-10-14T04:32:06;23.75;;;12.40;;
21354;SDS011;10835;50.148;19.760;2022-10-14T04:34:34;23.10;;;11.38;;
21354;SDS011;10835;50.148;19.760;2022-10-14T04:37:04;18.17;;;9.95;;
21354;SDS011;10835;50.148;19.760;2022-10-14T04:39:54;15.70;;;8.63;;
21354;SDS011;10835;50.148;19.760;2022-10-14T04:42:22;12.60;;;8.32;;
21354;SDS011;10835;50.148;19.760;2022-10-14T04:44:56;16.10;;;8.65;;
21354;SDS011;10835;50.148;19.760;2022-10-14T04:47:36;28.45;;;11.65;;
21354;SDS011;10835;50.148;19.760;2022-10-14T04:50:05;18.73;;;9.60;;
21354;SDS011;10835;50.148;19.760;2022-10-14T04:52:35;15.27;;;9.10;;
21354;SDS011;10835;50.148;19.760;2022-10-14T04:55:11;17.50;;;9.98;;
21354;SDS011;10835;50.148;19.760;2022-10-14T04:57:41;19.42;;;11.73;;
21354;SDS011;10835;50.148;19.760;2022-10-14T05:00:10;19.73;;;11.65;;
21354;SDS011;10835;50.148;19.760;2022-10-14T05:02:47;26.17;;;12.80;;
21354;SDS011;10835;50.148;19.760;2022-10-14T05:05:17;20.20;;;11.35;;
21354;SDS011;10835;50.148;19.760;2022-10-14T05:07:50;23.00;;;12.48;;
21354;SDS011;10835;50.148;19.760;2022-10-14T05:10:28;26.83;;;13.35;;
21354;SDS011;10835;50.148;19.760;2022-10-14T05:12:57;23.13;;;11.98;;
21354;SDS011;10835;50.148;19.760;2022-10-14T05:15:29;28.50;;;12.68;;
21354;SDS011;10835;50.148;19.760;2022-10-14T05:18:04;21.35;;;11.05;;
21354;SDS011;10835;50.148;19.760;2022-10-14T05:20:46;24.50;;;13.05;;
21354;SDS011;10835;50.148;19.760;2022-10-14T05:23:16;22.63;;;11.80;;
21354;SDS011;10835;50.148;19.760;2022-10-14T05:25:46;21.15;;;11.68;;
21354;SDS011;10835;50.148;19.760;2022-10-14T05:28:15;25.52;;;12.45;;
21354;SDS011;10835;50.148;19.760;2022-10-14T05:30:43;35.03;;;14.88;;
21354;SDS011;10835;50.148;19.760;2022-10-14T05:33:12;24.02;;;13.55;;
21354;SDS011;10835;50.148;19.760;2022-10-14T05:35:41;38.33;;;17.30;;
21354;SDS011;10835;50.148;19.760;2022-10-14T05:38:26;25.55;;;11.80;;
21354;SDS011;10835;50.148;19.760;2022-10-14T05:40:59;24.10;;;11.88;;
21354;SDS011;10835;50.148;19.760;2022-10-14T05:43:28;29.08;;;12.38;;
21354;SDS011;10835;50.148;19.760;2022-10-14T05:46:00;39.63;;;15.60;;
21354;SDS011;10835;50.148;19.760;2022-10-14T05:48:33;45.60;;;17.40;;
21354;SDS011;10835;50.148;19.760;2022-10-14T05:51:02;38.63;;;15.88;;
21354;SDS011;10835;50.148;19.760;2022-10-14T05:53:35;28.33;;;13.05;;
21354;SDS011;10835;50.148;19.760;2022-10-14T05:56:11;22.60;;;11.13;;
21354;SDS011;10835;50.148;19.760;2022-10-14T05:58:40;23.08;;;10.52;;
21354;SDS011;10835;50.148;19.760;2022-10-14T06:01:09;22.98;;;11.13;;
21354;SDS011;10835;50.148;19.760;2022-10-14T06:03:39;30.02;;;13.93;;
21354;SDS011;10835;50.148;19.760;2022-10-14T06:06:10;19.30;;;10.20;;
21354;SDS011;10835;50.148;19.760;2022-10-14T06:08:41;15.73;;;8.85;;
21354;SDS011;10835;50.148;19.760;2022-10-14T06:11:09;17.27;;;9.27;;
21354;SDS011;10835;50.148;19.760;2022-10-14T06:13:39;16.15;;;9.15;;
21354;SDS011;10835;50.148;19.760;2022-10-14T06:16:08;20.52;;;11.88;;
21354;SDS011;10835;50.148;19.760;2022-10-14T06:18:40;27.63;;;12.52;;
21354;SDS011;10835;50.148;19.760;2022-10-14T06:21:08;24.13;;;12.10;;
21354;SDS011;10835;50.148;19.760;2022-10-14T06:23:38;24.60;;;11.50;;
21354;SDS011;10835;50.148;19.760;2022-10-14T06:26:06;20.67;;;11.27;;
21354;SDS011;10835;50.148;19.760;2022-10-14T06:28:36;20.75;;;10.90;;
21354;SDS011;10835;50.148;19.760;2022-10-14T06:31:04;26.75;;;12.43;;
21354;SDS011;10835;50.148;19.760;2022-10-14T06:33:33;24.92;;;12.68;;
21354;SDS011;10835;50.148;19.760;2022-10-14T06:36:02;23.48;;;12.60;;
21354;SDS011;10835;50.148;19.760;2022-10-14T06:38:31;19.50;;;11.90;;
21354;SDS011;10835;50.148;19.760;2022-10-14T06:40:59;36.13;;;19.20;;
21354;SDS011;10835;50.148;19.760;2022-10-14T06:43:28;28.98;;;15.75;;
21354;SDS011;10835;50.148;19.760;2022-10-14T06:46:01;27.15;;;14.38;;
21354;SDS011;10835;50.148;19.760;2022-10-14T06:48:30;25.30;;;13.15;;
21354;SDS011;10835;50.148;19.760;2022-10-14T06:50:58;21.20;;;11.30;;
21354;SDS011;10835;50.148;19.760;2022-10-14T06:53:27;19.92;;;11.88;;
21354;SDS011;10835;50.148;19.760;2022-10-14T06:55:56;20.25;;;11.38;;
21354;SDS011;10835;50.148;19.760;2022-10-14T06:58:25;24.27;;;12.50;;
21354;SDS011;10835;50.148;19.760;2022-10-14T07:00:53;23.25;;;11.25;;
21354;SDS011;10835;50.148;19.760;2022-10-14T07:03:27;20.73;;;11.95;;
21354;SDS011;10835;50.148;19.760;2022-10-14T07:05:55;19.45;;;11.50;;
21354;SDS011;10835;50.148;19.760;2022-10-14T07:08:23;21.98;;;13.55;;
21354;SDS011;10835;50.148;19.760;2022-10-14T07:10:51;21.27;;;13.48;;
21354;SDS011;10835;50.148;19.760;2022-10-14T07:13:19;23.30;;;12.63;;
21354;SDS011;10835;50.148;19.760;2022-10-14T07:15:47;21.30;;;13.45;;
21354;SDS011;10835;50.148;19.760;2022-10-14T07:18:17;24.25;;;13.18;;
21354;SDS011;10835;50.148;19.760;2022-10-14T07:20:47;20.77;;;13.52;;
21354;SDS011;10835;50.148;19.760;2022-10-14T07:23:16;25.20;;;13.50;;
21354;SDS011;10835;50.148;19.760;2022-10-14T07:25:44;22.83;;;14.20;;
21354;SDS011;10835;50.148;19.760;2022-10-14T07:28:12;23.88;;;15.55;;
21354;SDS011;10835;50.148;19.760;2022-10-14T07:30:40;22.92;;;14.80;;
21354;SDS011;10835;50.148;19.760;2022-10-14T07:33:08;28.33;;;15.85;;
21354;SDS011;10835;50.148;19.760;2022-10-14T07:35:36;27.48;;;16.27;;
21354;SDS011;10835;50.148;19.760;2022-10-14T07:38:05;33.10;;;15.40;;
21354;SDS011;10835;50.148;19.760;2022-10-14T07:40:34;25.45;;;15.13;;
21354;SDS011;10835;50.148;19.760;2022-10-14T07:43:02;26.48;;;15.10;;
21354;SDS011;10835;50.148;19.760;2022-10-14T07:45:30;26.10;;;15.13;;
21354;SDS011;10835;50.148;19.760;2022-10-14T07:48:01;28.63;;;15.77;;
21354;SDS011;10835;50.148;19.760;2022-10-14T07:50:29;25.88;;;14.82;;
21354;SDS011;10835;50.148;19.760;2022-10-14T07:52:57;23.88;;;15.38;;
21354;SDS011;10835;50.148;19.760;2022-10-14T07:55:28;28.23;;;15.45;;
21354;SDS011;10835;50.148;19.760;2022-10-14T07:57:56;23.70;;;15.02;;
21354;SDS011;10835;50.148;19.760;2022-10-14T08:00:25;26.20;;;14.80;;
21354;SDS011;10835;50.148;19.760;2022-10-14T08:02:53;23.08;;;13.95;;
21354;SDS011;10835;50.148;19.760;2022-10-14T08:05:21;27.35;;;14.25;;
21354;SDS011;10835;50.148;19.760;2022-10-14T08:08:03;25.38;;;14.10;;
21354;SDS011;10835;50.148;19.760;2022-10-14T08:10:33;23.35;;;13.85;;
21354;SDS011;10835;50.148;19.760;2022-10-14T08:13:01;25.00;;;14.52;;
21354;SDS011;10835;50.148;19.760;2022-10-14T08:15:31;27.90;;;14.82;;
21354;SDS011;10835;50.148;19.760;2022-10-14T08:18:03;23.90;;;14.32;;
21354;SDS011;10835;50.148;19.760;2022-10-14T08:20:32;28.55;;;15.05;;
21354;SDS011;10835;50.148;19.760;2022-10-14T08:23:00;24.25;;;14.10;;
21354;SDS011;10835;50.148;19.760;2022-10-14T08:25:28;21.60;;;13.80;;
21354;SDS011;10835;50.148;19.760;2022-10-14T08:27:58;27.75;;;15.32;;
21354;SDS011;10835;50.148;19.760;2022-10-14T08:30:26;31.27;;;13.55;;
21354;SDS011;10835;50.148;19.760;2022-10-14T08:32:54;27.13;;;14.35;;
21354;SDS011;10835;50.148;19.760;2022-10-14T08:35:22;24.10;;;14.63;;
21354;SDS011;10835;50.148;19.760;2022-10-14T08:37:56;29.67;;;15.63;;
21354;SDS011;10835;50.148;19.760;2022-10-14T08:40:25;30.45;;;15.63;;
21354;SDS011;10835;50.148;19.760;2022-10-14T08:42:57;20.67;;;13.98;;
21354;SDS011;10835;50.148;19.760;2022-10-14T08:45:31;27.00;;;14.90;;
21354;SDS011;10835;50.148;19.760;2022-10-14T08:48:03;30.77;;;15.10;;
21354;SDS011;10835;50.148;19.760;2022-10-14T08:50:39;25.92;;;14.13;;
21354;SDS011;10835;50.148;19.760;2022-10-14T08:53:14;25.08;;;14.73;;
21354;SDS011;10835;50.148;19.760;2022-10-14T08:55:46;28.45;;;15.50;;
21354;SDS011;10835;50.148;19.760;2022-10-14T08:58:19;27.75;;;14.60;;
21354;SDS011;10835;50.148;19.760;2022-10-14T09:00:52;27.40;;;15.18;;
21354;SDS011;10835;50.148;19.760;2022-10-14T09:03:21;26.60;;;14.80;;
21354;SDS011;10835;50.148;19.760;2022-10-14T09:05:54;24.10;;;14.25;;
21354;SDS011;10835;50.148;19.760;2022-10-14T09:08:26;23.80;;;14.43;;
21354;SDS011;10835;50.148;19.760;2022-10-14T09:10:59;26.08;;;14.20;;
21354;SDS011;10835;50.148;19.760;2022-10-14T09:13:30;23.95;;;12.70;;
21354;SDS011;10835;50.148;19.760;2022-10-14T09:16:03;26.70;;;14.18;;
21354;SDS011;10835;50.148;19.760;2022-10-14T09:18:39;26.75;;;14.23;;
21354;SDS011;10835;50.148;19.760;2022-10-14T09:21:22;25.50;;;13.90;;
21354;SDS011;10835;50.148;19.760;2022-10-14T09:24:15;26.17;;;13.65;;
21354;SDS011;10835;50.148;19.760;2022-10-14T09:26:47;24.65;;;13.43;;
21354;SDS011;10835;50.148;19.760;2022-10-14T09:29:22;24.83;;;13.70;;
21354;SDS011;10835;50.148;19.760;2022-10-14T09:31:52;23.30;;;13.75;;
21354;SDS011;10835;50.148;19.760;2022-10-14T09:34:26;23.70;;;14.07;;
21354;SDS011;10835;50.148;19.760;2022-10-14T09:39:39;33.13;;;14.13;;
21354;SDS011;10835;50.148;19.760;2022-10-14T09:42:09;25.90;;;14.98;;
21354;SDS011;10835;50.148;19.760;2022-10-14T09:44:45;23.10;;;14.95;;
21354;SDS011;10835;50.148;19.760;2022-10-14T09:47:34;26.13;;;14.75;;
21354;SDS011;10835;50.148;19.760;2022-10-14T09:50:08;25.13;;;14.48;;
21354;SDS011;10835;50.148;19.760;2022-10-14T09:52:39;22.10;;;13.82;;
21354;SDS011;10835;50.148;19.760;2022-10-14T09:55:09;22.50;;;14.15;;
21354;SDS011;10835;50.148;19.760;2022-10-14T09:57:54;26.42;;;14.82;;
21354;SDS011;10835;50.148;19.760;2022-10-14T10:00:40;26.48;;;14.18;;
21354;SDS011;10835;50.148;19.760;2022-10-14T10:03:08;24.63;;;15.57;;
21354;SDS011;10835;50.148;19.760;2022-10-14T10:06:01;22.80;;;14.32;;
21354;SDS011;10835;50.148;19.760;2022-10-14T10:08:31;28.80;;;15.40;;
21354;SDS011;10835;50.148;19.760;2022-10-14T10:11:01;24.98;;;14.63;;
21354;SDS011;10835;50.148;19.760;2022-10-14T10:13:36;24.15;;;14.30;;
21354;SDS011;10835;50.148;19.760;2022-10-14T10:16:16;29.33;;;15.15;;
21354;SDS011;10835;50.148;19.760;2022-10-14T10:18:46;25.95;;;14.88;;
21354;SDS011;10835;50.148;19.760;2022-10-14T10:21:16;24.55;;;14.73;;
21354;SDS011;10835;50.148;19.760;2022-10-14T10:23:50;28.38;;;14.27;;
21354;SDS011;10835;50.148;19.760;2022-10-14T10:26:20;25.10;;;14.50;;
21354;SDS011;10835;50.148;19.760;2022-10-14T10:28:53;26.50;;;14.63;;
21354;SDS011;10835;50.148;19.760;2022-10-14T10:31:36;25.67;;;15.60;;
21354;SDS011;10835;50.148;19.760;2022-10-14T10:34:18;26.65;;;16.13;;
21354;SDS011;10835;50.148;19.760;2022-10-14T10:37:22;31.23;;;16.70;;
21354;SDS011;10835;50.148;19.760;2022-10-14T10:40:07;21.58;;;11.20;;
21354;SDS011;10835;50.148;19.760;2022-10-14T10:42:50;15.77;;;9.73;;
21354;SDS011;10835;50.148;19.760;2022-10-14T10:45:29;17.90;;;9.57;;
21354;SDS011;10835;50.148;19.760;2022-10-14T10:48:10;18.33;;;10.25;;
21354;SDS011;10835;50.148;19.760;2022-10-14T10:50:47;17.58;;;10.40;;
21354;SDS011;10835;50.148;19.760;2022-10-14T10:56:14;14.90;;;10.07;;
21354;SDS011;10835;50.148;19.760;2022-10-14T10:58:52;20.20;;;10.60;;
21354;SDS011;10835;50.148;19.760;2022-10-14T11:01:30;10.07;;;7.05;;
21354;SDS011;10835;50.148;19.760;2022-10-14T11:04:19;17.08;;;11.55;;
21354;SDS011;10835;50.148;19.760;2022-10-14T11:06:59;16.40;;;10.38;;
21354;SDS011;10835;50.148;19.760;2022-10-14T11:10:02;14.35;;;9.63;;
21354;SDS011;10835;50.148;19.760;2022-10-14T11:12:58;13.48;;;8.88;;
21354;SDS011;10835;50.148;19.760;2022-10-14T11:15:38;15.65;;;10.55;;
21354;SDS011;10835;50.148;19.760;2022-10-14T11:18:13;14.50;;;9.55;;
21354;SDS011;10835;50.148;19.760;2022-10-14T11:20:55;17.42;;;10.57;;
21354;SDS011;10835;50.148;19.760;2022-10-14T11:23:39;20.08;;;11.48;;
21354;SDS011;10835;50.148;19.760;2022-10-14T11:26:18;15.02;;;10.18;;
21354;SDS011;10835;50.148;19.760;2022-10-14T11:29:07;17.52;;;10.75;;
21354;SDS011;10835;50.148;19.760;2022-10-14T11:31:46;19.27;;;11.00;;
21354;SDS011;10835;50.148;19.760;2022-10-14T11:34:25;15.65;;;10.23;;
21354;SDS011;10835;50.148;19.760;2022-10-14T11:37:08;17.00;;;10.48;;
21354;SDS011;10835;50.148;19.760;2022-10-14T11:39:47;21.05;;;11.75;;
21354;SDS011;10835;50.148;19.760;2022-10-14T11:42:23;18.35;;;10.45;;
21354;SDS011;10835;50.148;19.760;2022-10-14T11:45:10;21.58;;;11.57;;
21354;SDS011;10835;50.148;19.760;2022-10-14T11:47:54;15.65;;;10.23;;
21354;SDS011;10835;50.148;19.760;2022-10-14T11:50:34;19.80;;;11.35;;
21354;SDS011;10835;50.148;19.760;2022-10-14T11:53:09;20.63;;;10.32;;
21354;SDS011;10835;50.148;19.760;2022-10-14T11:55:44;21.88;;;11.20;;
21354;SDS011;10835;50.148;19.760;2022-10-14T11:58:16;22.23;;;10.45;;
21354;SDS011;10835;50.148;19.760;2022-10-14T12:00:52;17.42;;;10.10;;
21354;SDS011;10835;50.148;19.760;2022-10-14T12:03:25;22.13;;;11.30;;
21354;SDS011;10835;50.148;19.760;2022-10-14T12:06:05;17.17;;;10.57;;
21354;SDS011;10835;50.148;19.760;2022-10-14T12:08:42;14.70;;;9.65;;
21354;SDS011;10835;50.148;19.760;2022-10-14T12:11:17;20.55;;;10.65;;
21354;SDS011;10835;50.148;19.760;2022-10-14T12:13:56;19.23;;;10.07;;
21354;SDS011;10835;50.148;19.760;2022-10-14T12:16:31;14.38;;;10.10;;
21354;SDS011;10835;50.148;19.760;2022-10-14T12:18:59;15.20;;;10.50;;
21354;SDS011;10835;50.148;19.760;2022-10-14T12:21:29;18.77;;;10.88;;
21354;SDS011;10835;50.148;19.760;2022-10-14T12:24:04;15.90;;;9.80;;
21354;SDS011;10835;50.148;19.760;2022-10-14T12:26:48;19.50;;;10.15;;
21354;SDS011;10835;50.148;19.760;2022-10-14T12:29:19;16.40;;;10.80;;
21354;SDS011;10835;50.148;19.760;2022-10-14T12:31:50;20.35;;;11.20;;
21354;SDS011;10835;50.148;19.760;2022-10-14T12:34:35;20.10;;;11.02;;
21354;SDS011;10835;50.148;19.760;2022-10-14T12:40:25;17.60;;;10.95;;
21354;SDS011;10835;50.148;19.760;2022-10-14T12:45:50;15.23;;;10.02;;
21354;SDS011;10835;50.148;19.760;2022-10-14T12:48:43;16.63;;;10.50;;
21354;SDS011;10835;50.148;19.760;2022-10-14T12:51:16;16.15;;;9.70;;
21354;SDS011;10835;50.148;19.760;2022-10-14T12:53:48;20.40;;;10.30;;
21354;SDS011;10835;50.148;19.760;2022-10-14T12:56:30;21.05;;;9.93;;
21354;SDS011;10835;50.148;19.760;2022-10-14T12:59:05;15.18;;;9.93;;
21354;SDS011;10835;50.148;19.760;2022-10-14T13:01:35;18.40;;;9.55;;
21354;SDS011;10835;50.148;19.760;2022-10-14T13:04:13;16.73;;;9.88;;
21354;SDS011;10835;50.148;19.760;2022-10-14T13:10:24;20.02;;;11.10;;
21354;SDS011;10835;50.148;19.760;2022-10-14T13:19:37;15.02;;;10.27;;
21354;SDS011;10835;50.148;19.760;2022-10-14T13:25:02;17.95;;;10.50;;
21354;SDS011;10835;50.148;19.760;2022-10-14T13:27:39;17.02;;;10.48;;
21354;SDS011;10835;50.148;19.760;2022-10-14T13:30:18;16.73;;;10.32;;
21354;SDS011;10835;50.148;19.760;2022-10-14T13:32:51;16.08;;;9.88;;
21354;SDS011;10835;50.148;19.760;2022-10-14T13:35:25;17.95;;;10.57;;
21354;SDS011;10835;50.148;19.760;2022-10-14T13:37:59;17.83;;;10.80;;
21354;SDS011;10835;50.148;19.760;2022-10-14T13:40:29;13.80;;;8.35;;
21354;SDS011;10835;50.148;19.760;2022-10-14T13:43:01;20.50;;;10.57;;
21354;SDS011;10835;50.148;19.760;2022-10-14T13:45:38;22.02;;;10.00;;
21354;SDS011;10835;50.148;19.760;2022-10-14T13:48:08;18.17;;;10.50;;
21354;SDS011;10835;50.148;19.760;2022-10-14T13:50:40;20.02;;;10.55;;
21354;SDS011;10835;50.148;19.760;2022-10-14T13:53:13;14.73;;;9.95;;
21354;SDS011;10835;50.148;19.760;2022-10-14T13:55:43;28.67;;;10.90;;
21354;SDS011;10835;50.148;19.760;2022-10-14T13:58:20;23.08;;;9.73;;
21354;SDS011;10835;50.148;19.760;2022-10-14T14:00:57;20.63;;;10.15;;
21354;SDS011;10835;50.148;19.760;2022-10-14T14:03:29;15.38;;;10.00;;
21354;SDS011;10835;50.148;19.760;2022-10-14T14:06:00;15.55;;;10.13;;
21354;SDS011;10835;50.148;19.760;2022-10-14T14:08:30;21.23;;;11.93;;
21354;SDS011;10835;50.148;19.760;2022-10-14T14:11:07;19.02;;;9.90;;
21354;SDS011;10835;50.148;19.760;2022-10-14T14:13:45;14.48;;;9.07;;
21354;SDS011;10835;50.148;19.760;2022-10-14T14:16:31;19.30;;;10.48;;
21354;SDS011;10835;50.148;19.760;2022-10-14T14:19:02;23.25;;;11.93;;
21354;SDS011;10835;50.148;19.760;2022-10-14T14:21:35;16.98;;;10.10;;
21354;SDS011;10835;50.148;19.760;2022-10-14T14:24:06;15.73;;;10.65;;
21354;SDS011;10835;50.148;19.760;2022-10-14T14:26:48;19.95;;;10.57;;
21354;SDS011;10835;50.148;19.760;2022-10-14T14:29:25;19.60;;;10.25;;
21354;SDS011;10835;50.148;19.760;2022-10-14T14:31:56;18.40;;;11.10;;
21354;SDS011;10835;50.148;19.760;2022-10-14T14:34:35;16.58;;;10.52;;
21354;SDS011;10835;50.148;19.760;2022-10-14T14:37:06;17.90;;;10.70;;
21354;SDS011;10835;50.148;19.760;2022-10-14T14:40:02;18.95;;;10.13;;
21354;SDS011;10835;50.148;19.760;2022-10-14T14:42:37;19.83;;;10.65;;
21354;SDS011;10835;50.148;19.760;2022-10-14T14:45:10;19.08;;;10.75;;
21354;SDS011;10835;50.148;19.760;2022-10-14T14:47:43;17.70;;;11.00;;
21354;SDS011;10835;50.148;19.760;2022-10-14T14:50:12;15.77;;;10.63;;
21354;SDS011;10835;50.148;19.760;2022-10-14T14:52:57;18.95;;;10.48;;
21354;SDS011;10835;50.148;19.760;2022-10-14T14:55:35;16.65;;;10.45;;
21354;SDS011;10835;50.148;19.760;2022-10-14T14:58:18;17.80;;;10.30;;
21354;SDS011;10835;50.148;19.760;2022-10-14T15:00:49;22.25;;;10.43;;
21354;SDS011;10835;50.148;19.760;2022-10-14T15:03:22;19.52;;;10.73;;
21354;SDS011;10835;50.148;19.760;2022-10-14T15:05:52;15.30;;;9.93;;
21354;SDS011;10835;50.148;19.760;2022-10-14T15:08:25;18.13;;;10.43;;
21354;SDS011;10835;50.148;19.760;2022-10-14T15:10:55;22.65;;;11.48;;
21354;SDS011;10835;50.148;19.760;2022-10-14T15:13:25;17.95;;;10.65;;
21354;SDS011;10835;50.148;19.760;2022-10-14T15:16:01;17.52;;;10.65;;
21354;SDS011;10835;50.148;19.760;2022-10-14T15:18:31;16.45;;;10.55;;
21354;SDS011;10835;50.148;19.760;2022-10-14T15:21:04;30.00;;;12.00;;